Trapper Creek, Alaska
Current Conditions -  °F | °C
As of 6:53 AM on Sunday 21 Dec 2014 (Local Time) from PATK Reporting Station
Overcast Overcast  
Wind Chill: 19°   Ceiling: 5500
Heat Index: 27°   Visibility: 10mi
Dew Point: 11°   Wind: 7mph
Humidity: 51%   Direction: 20°NNE
Pressure: 29.11"   Gusts: NA
Location:  62.24°N, 150.42°W
Report Text: PATK 211553Z AUTO 02006KT 10SM OVC055 M03/M12 A2911 RMK AO2 SLP864 T10281117 TSNO
Loading
Personal Weather Stations






























Interactive Weather Map New forecast layout! Learn more

10-Day Weather Forecast

Advertisements
Track Severe Weather on mobile